Terminal Aerodrome Forecast
Issued by NWS

Home | Current Version | Previous Version | Text Only | Print | Product List | Glossary On
Versions: 1 2 3 4 5 6 7 8 9 10 11 12 13
000
FTAK31 PAFA 291126
TAFAOR
TAF
PAOR 291126Z 2912/3012 VRB04KT P6SM BKN070 OVC090
     FM292000 33006KT P6SM -SHRA BKN060 BKN100
     FM300200 34005KT P6SM -SHRA BKN060 BKN100 PROB30 3002/3006 6SM
      -TSRA BKN050CB=

USA.gov is the U.S. government's official web portal to all federal, state and local government web resources and services.